Time;durP1;ratioP1;P1;durP2;ratioP2;P2;SDS_P1;SDS_P2;PMS_P1;PMS_P2;Temp;Humidity;BMP_temperature;BMP_pressure;BME280_temperature;BME280_humidity;BME280_pressure;Samples;Min_cycle;Max_cycle;Signal;HPM_P1;HPM_P2
2021/04/17 00:02:09;;;;;;;3.83;3.42;;;;;;;16.58;60.64;99526.53;1790744;79;21330;-73
2021/04/17 00:04:38;;;;;;;4.10;3.40;;;;;;;16.59;60.62;99528.20;1807148;79;21194;-73
2021/04/17 00:07:08;;;;;;;3.37;3.08;;;;;;;16.59;60.61;99534.05;1793650;77;21168;-73
2021/04/17 00:09:36;;;;;;;3.58;3.27;;;;;;;16.59;60.53;99526.01;1794355;79;21279;-74
2021/04/17 00:12:09;;;;;;;3.47;3.17;;;;;;;16.59;60.53;99528.20;1798362;78;21458;-75
2021/04/17 00:14:37;;;;;;;3.33;2.98;;;;;;;16.60;60.51;99531.69;1795670;79;21182;-74
2021/04/17 00:17:07;;;;;;;3.80;3.00;;;;;;;16.59;60.47;99526.86;1806752;78;21173;-73
2021/04/17 00:19:35;;;;;;;3.15;2.85;;;;;;;16.59;60.41;99536.24;1809003;78;21135;-73
2021/04/17 00:22:04;;;;;;;3.10;2.80;;;;;;;16.59;60.40;99536.24;1827949;78;21342;-75
2021/04/17 00:24:32;;;;;;;3.15;2.95;;;;;;;16.59;60.36;99532.72;1801632;78;21122;-74
2021/04/17 00:27:01;;;;;;;2.83;2.62;;;;;;;16.59;60.33;99533.56;1802369;78;21163;-73
2021/04/17 00:29:31;;;;;;;3.33;3.02;;;;;;;16.59;60.32;99532.72;1824127;78;21172;-75
2021/04/17 00:32:01;;;;;;;3.27;2.98;;;;;;;16.59;60.28;99532.22;1811515;78;21215;-73
2021/04/17 00:34:29;;;;;;;3.20;2.77;;;;;;;16.59;60.26;99542.10;1813634;78;21174;-71
2021/04/17 00:36:56;;;;;;;3.50;3.20;;;;;;;16.58;60.22;99539.95;1811945;78;21193;-73
2021/04/17 00:39:25;;;;;;;3.00;2.70;;;;;;;16.58;60.21;99542.63;1823211;78;21103;-72
2021/04/17 00:41:52;;;;;;;3.08;2.77;;;;;;;16.57;60.16;99538.28;1829007;78;21127;-72
2021/04/17 00:44:19;;;;;;;2.95;2.65;;;;;;;16.57;60.16;99538.28;1826463;77;21095;-73
2021/04/17 00:46:48;;;;;;;3.17;2.87;;;;;;;16.57;60.15;99540.97;1826158;78;21147;-72
2021/04/17 00:49:16;;;;;;;3.05;2.75;;;;;;;16.57;60.10;99539.62;1826664;78;21095;-73
2021/04/17 00:51:46;;;;;;;2.70;2.50;;;;;;;16.56;60.06;99535.31;1828982;78;21147;-72
2021/04/17 00:54:15;;;;;;;3.05;2.75;;;;;;;16.56;60.05;99545.22;1823669;78;21571;-72
2021/04/17 00:56:43;;;;;;;3.20;2.90;;;;;;;16.54;60.07;99545.43;1824856;78;21509;-72
2021/04/17 00:59:10;;;;;;;2.92;2.40;;;;;;;16.54;60.05;99548.11;1814017;78;21579;-72
2021/04/17 01:01:38;;;;;;;3.00;2.70;;;;;;;16.54;60.03;99549.45;1824937;77;21682;-72
2021/04/17 01:04:37;;;;;;;2.85;2.40;;;;;;;16.53;60.03;99550.47;1829112;78;21171;-72
2021/04/17 01:07:33;;;;;;;2.70;2.50;;;;;;;16.53;60.04;99547.80;1821506;78;21155;-73
2021/04/17 01:10:33;;;;;;;3.00;2.70;;;;;;;16.51;60.10;99553.39;1815094;77;21427;-72
2021/04/17 01:13:01;;;;;;;3.37;2.85;;;;;;;16.50;60.08;99548.23;1819003;78;21185;-72
2021/04/17 01:15:29;;;;;;;3.37;3.08;;;;;;;16.47;60.11;99546.77;1815830;78;21114;-74
2021/04/17 01:17:59;;;;;;;2.70;2.45;;;;;;;16.46;60.11;99555.88;1799754;78;21207;-73
2021/04/17 01:20:47;;;;;;;3.75;2.77;;;;;;;16.46;60.15;99551.85;1812175;78;22096;-71
2021/04/17 01:23:36;;;;;;;2.87;2.60;;;;;;;16.46;60.12;99553.72;1782293;79;21137;-72
2021/04/17 01:26:17;;;;;;;3.40;3.10;;;;;;;16.44;60.13;99552.58;1775849;79;21383;-72
2021/04/17 01:28:50;;;;;;;2.95;2.75;;;;;;;16.43;60.13;99556.80;1781266;79;21178;-71
2021/04/17 01:31:20;;;;;;;3.08;2.75;;;;;;;16.42;60.14;99558.67;1782531;79;21578;-73
2021/04/17 01:33:51;;;;;;;2.98;2.70;;;;;;;16.41;60.10;99559.69;1784144;79;21123;-72
2021/04/17 01:36:19;;;;;;;2.62;2.42;;;;;;;16.42;60.10;99564.03;1783344;79;21295;-74
2021/04/17 01:38:57;;;;;;;3.15;2.85;;;;;;;16.41;60.09;99562.38;1808635;78;21200;-72
2021/04/17 01:41:30;;;;;;;2.85;2.65;;;;;;;16.41;60.06;99561.55;1776103;80;22080;-70
2021/04/17 01:43:59;;;;;;;3.05;2.62;;;;;;;16.42;60.07;99564.56;1782654;79;21118;-73
2021/04/17 01:46:28;;;;;;;2.72;2.45;;;;;;;16.40;60.07;99562.58;1777437;80;21110;-71
2021/04/17 01:49:04;;;;;;;3.05;2.75;;;;;;;16.39;60.04;99565.78;1759921;80;21199;-72
2021/04/17 01:51:33;;;;;;;3.42;2.80;;;;;;;16.40;60.04;99567.94;1774743;79;22341;-71
2021/04/17 01:54:03;;;;;;;2.60;2.40;;;;;;;16.39;60.01;99565.78;1800658;78;21170;-72
2021/04/17 01:56:31;;;;;;;2.77;2.58;;;;;;;16.39;60.02;99570.33;1802401;78;21126;-71
2021/04/17 01:58:59;;;;;;;3.12;2.83;;;;;;;16.37;59.97;99567.03;1804993;78;21162;-71
2021/04/17 02:01:27;;;;;;;2.77;2.58;;;;;;;16.40;59.96;99569.28;1800801;78;21638;-71
2021/04/17 02:03:54;;;;;;;2.83;2.62;;;;;;;16.38;59.95;99565.98;1794178;78;21311;-71
2021/04/17 02:06:21;;;;;;;2.87;2.52;;;;;;;16.39;59.93;99573.01;1807877;78;21138;-74
2021/04/17 02:08:50;;;;;;;2.85;2.55;;;;;;;16.39;59.92;99575.16;1785606;80;21150;-73
2021/04/17 02:11:18;;;;;;;2.70;2.50;;;;;;;16.39;59.87;99575.69;1785061;79;21062;-73
2021/04/17 02:13:47;;;;;;;3.00;2.70;;;;;;;16.38;59.83;99570.85;1780972;79;21143;-72
2021/04/17 02:16:21;;;;;;;3.45;2.70;;;;;;;16.38;59.83;99568.17;1791592;79;21460;-73
2021/04/17 02:18:56;;;;;;;2.70;2.50;;;;;;;16.38;59.79;99574.87;1784689;79;21586;-73
2021/04/17 02:21:41;;;;;;;2.80;2.52;;;;;;;16.37;59.82;99581.25;1794703;79;21115;-74
2021/04/17 02:24:09;;;;;;;3.10;2.80;;;;;;;16.37;59.81;99583.13;1811950;78;21142;-71
2021/04/17 02:26:39;;;;;;;3.17;2.50;;;;;;;16.35;59.78;99588.69;1814714;79;21145;-73
2021/04/17 02:29:09;;;;;;;2.85;2.55;;;;;;;16.35;59.77;99585.19;1817125;79;21423;-73
2021/04/17 02:31:36;;;;;;;2.75;2.50;;;;;;;16.34;59.76;99587.55;1814451;79;21177;-73
2021/04/17 02:34:05;;;;;;;2.58;2.37;;;;;;;16.34;59.77;99592.91;1814235;79;21201;-73
2021/04/17 02:36:32;;;;;;;2.50;2.30;;;;;;;16.33;59.75;99592.62;1753238;80;21153;-72
2021/04/17 02:39:00;;;;;;;2.58;2.33;;;;;;;16.33;59.73;99596.64;1800211;79;21103;-75
2021/04/17 02:41:28;;;;;;;3.12;2.65;;;;;;;16.33;59.73;99598.80;1816217;79;21382;-75
2021/04/17 02:43:55;;;;;;;2.75;2.55;;;;;;;16.33;59.70;99607.36;1793838;79;21177;-73
2021/04/17 02:46:25;;;;;;;2.60;2.22;;;;;;;16.33;59.67;99603.34;1796036;79;21548;-73
2021/04/17 02:48:55;;;;;;;3.27;2.98;;;;;;;16.32;59.66;99606.52;1784464;79;21177;-75
2021/04/17 02:51:23;;;;;;;3.45;3.00;;;;;;;16.31;59.65;99610.24;1806243;79;21150;-74
2021/04/17 02:53:52;;;;;;;2.80;2.60;;;;;;;16.30;59.67;99610.77;1800804;79;21202;-74
2021/04/17 02:56:21;;;;;;;2.42;2.22;;;;;;;16.31;59.65;99615.61;1802838;79;21149;-75
2021/04/17 02:58:48;;;;;;;2.70;2.50;;;;;;;16.30;59.63;99612.60;1798721;79;21143;-74
2021/04/17 03:01:16;;;;;;;2.90;2.60;;;;;;;16.29;59.60;99613.66;1784417;79;21130;-74
2021/04/17 03:03:44;;;;;;;2.52;2.33;;;;;;;16.28;59.60;99612.84;1807403;79;21172;-74
2021/04/17 03:06:11;;;;;;;2.80;2.60;;;;;;;16.28;59.55;99619.53;1800175;79;21190;-73
2021/04/17 03:08:39;;;;;;;2.95;2.72;;;;;;;16.28;59.61;99620.87;1802591;79;21137;-73
2021/04/17 03:11:09;;;;;;;2.80;2.60;;;;;;;16.27;59.56;99624.58;1794409;79;21218;-74
2021/04/17 03:13:38;;;;;;;2.50;2.30;;;;;;;16.27;59.54;99625.91;1801952;79;21178;-74
2021/04/17 03:16:06;;;;;;;3.00;2.75;;;;;;;16.27;59.55;99626.44;1791899;79;21134;-73
2021/04/17 03:18:34;;;;;;;2.50;2.30;;;;;;;16.25;59.53;99629.32;1798928;79;21382;-73
2021/04/17 03:21:03;;;;;;;2.85;2.65;;;;;;;16.25;59.51;99640.05;1787208;77;21564;-75
2021/04/17 03:23:32;;;;;;;2.80;2.60;;;;;;;16.25;59.50;99637.89;1802596;79;21153;-75
2021/04/17 03:26:00;;;;;;;2.60;2.40;;;;;;;16.24;59.47;99645.08;1809628;79;21153;-72
2021/04/17 03:28:27;;;;;;;3.15;2.85;;;;;;;16.24;59.51;99642.40;1785081;79;21146;-72
2021/04/17 03:30:57;;;;;;;2.50;2.30;;;;;;;16.23;59.47;99643.97;1810645;79;21212;-71
2021/04/17 03:33:25;;;;;;;2.47;2.27;;;;;;;16.23;59.50;99645.31;1813225;79;21141;-73
2021/04/17 03:35:54;;;;;;;2.58;2.37;;;;;;;16.22;59.48;99648.48;1807679;79;21145;-73
2021/04/17 03:38:25;;;;;;;2.77;2.58;;;;;;;16.23;59.50;99650.67;1797736;79;21125;-73
2021/04/17 03:40:53;;;;;;;2.50;2.22;;;;;;;16.22;59.48;99654.38;1810086;79;21609;-72
2021/04/17 03:43:22;;;;;;;2.40;2.15;;;;;;;16.21;59.47;99654.89;1794484;79;21130;-73
2021/04/17 03:45:51;;;;;;;3.08;2.77;;;;;;;16.22;59.46;99660.55;1814278;79;21119;-71
2021/04/17 03:48:20;;;;;;;2.70;2.50;;;;;;;16.21;59.46;99661.59;1795955;79;21113;-74
2021/04/17 03:50:47;;;;;;;3.05;2.75;;;;;;;16.21;59.45;99669.64;1813206;79;21177;-74
2021/04/17 03:53:15;;;;;;;2.83;2.62;;;;;;;16.21;59.46;99666.14;1784419;79;21172;-75
2021/04/17 03:55:43;;;;;;;2.70;2.50;;;;;;;16.20;59.45;99670.66;1784411;79;21462;-70
2021/04/17 03:58:11;;;;;;;2.60;2.40;;;;;;;16.20;59.47;99670.66;1808978;79;21168;-70
2021/04/17 04:00:39;;;;;;;2.45;2.25;;;;;;;16.20;59.43;99673.33;1785054;79;21544;-72
2021/04/17 04:03:06;;;;;;;2.72;2.27;;;;;;;16.19;59.38;99674.38;1793413;79;21173;-72
2021/04/17 04:05:36;;;;;;;3.08;2.58;;;;;;;16.19;59.41;99677.06;1785862;79;21098;-72
2021/04/17 04:08:04;;;;;;;2.40;2.20;;;;;;;16.20;59.41;99680.55;1816784;79;21423;-74
2021/04/17 04:10:32;;;;;;;2.65;2.45;;;;;;;16.20;59.41;99685.92;1800484;79;21581;-74
2021/04/17 04:12:59;;;;;;;2.60;2.40;;;;;;;16.18;59.40;99679.42;1803509;78;21153;-72
2021/04/17 04:15:26;;;;;;;3.02;2.62;;;;;;;16.18;59.38;99678.08;1812940;78;21609;-73
2021/04/17 04:17:55;;;;;;;2.50;2.30;;;;;;;16.18;59.36;99692.00;1809549;79;21151;-72
2021/04/17 04:20:22;;;;;;;2.85;2.65;;;;;;;16.18;59.34;99695.50;1795938;79;22967;-72
2021/04/17 04:22:51;;;;;;;2.50;2.30;;;;;;;16.18;59.35;99698.17;1817284;78;21110;-73
2021/04/17 04:25:19;;;;;;;2.58;2.37;;;;;;;16.18;59.35;99702.20;1828745;78;21139;-74
2021/04/17 04:27:46;;;;;;;3.37;2.70;;;;;;;16.17;59.34;99703.25;1828600;78;21139;-75
2021/04/17 04:30:16;;;;;;;2.80;2.50;;;;;;;16.18;59.33;99707.56;1815440;78;21182;-75
2021/04/17 04:32:44;;;;;;;2.60;2.40;;;;;;;16.17;59.31;99707.75;1820857;78;22183;-74
2021/04/17 04:35:14;;;;;;;3.47;3.17;;;;;;;16.16;59.32;99710.96;1809961;78;21118;-74
2021/04/17 04:37:41;;;;;;;2.92;2.62;;;;;;;16.16;59.32;99714.98;1803075;77;21111;-75
2021/04/17 04:40:11;;;;;;;3.15;2.85;;;;;;;16.15;59.36;99712.00;1806950;78;21150;-71
2021/04/17 04:42:40;;;;;;;2.77;2.50;;;;;;;16.16;59.33;99715.50;1786114;79;21120;-73
2021/04/17 04:45:10;;;;;;;3.58;3.00;;;;;;;16.14;59.30;99712.20;1812875;78;21380;-73
2021/04/17 04:47:38;;;;;;;3.22;2.92;;;;;;;16.16;59.29;99716.84;1795449;79;21150;-72
2021/04/17 04:50:08;;;;;;;2.85;2.58;;;;;;;16.13;59.29;99720.77;1813782;78;21608;-72
2021/04/17 04:52:36;;;;;;;2.60;2.40;;;;;;;16.13;59.28;99716.75;1825154;78;21130;-72
2021/04/17 04:55:05;;;;;;;2.90;2.70;;;;;;;16.12;59.27;99716.42;1794807;79;21131;-73
2021/04/17 04:57:36;;;;;;;3.33;2.55;;;;;;;16.13;59.26;99724.79;1825526;78;21247;-73
2021/04/17 05:00:06;;;;;;;3.00;2.67;;;;;;;16.14;59.27;99728.28;1804574;79;21164;-73
2021/04/17 05:02:33;;;;;;;2.62;2.37;;;;;;;16.14;59.26;99730.97;1790181;78;21605;-76
2021/04/17 05:05:01;;;;;;;3.55;2.50;;;;;;;16.11;59.27;99735.70;1818889;78;21629;-73
2021/04/17 05:07:28;;;;;;;3.30;3.00;;;;;;;16.10;59.27;99735.38;1796201;79;21552;-73
2021/04/17 05:09:57;;;;;;;2.60;2.40;;;;;;;16.11;59.20;99739.73;1822064;78;21577;-72
2021/04/17 05:12:24;;;;;;;2.65;2.42;;;;;;;16.11;59.22;99736.23;1795798;79;21141;-72
2021/04/17 05:14:52;;;;;;;2.85;2.55;;;;;;;16.12;59.24;99744.56;1776900;79;21163;-71
2021/04/17 05:17:19;;;;;;;2.70;2.50;;;;;;;16.11;59.20;99745.61;1771795;79;22067;-72
2021/04/17 05:19:47;;;;;;;2.98;2.67;;;;;;;16.13;59.20;99754.27;1805639;78;21569;-72
2021/04/17 05:22:15;;;;;;;2.55;2.35;;;;;;;16.11;59.23;99746.95;1784728;79;21731;-71
2021/04/17 05:24:43;;;;;;;2.40;2.20;;;;;;;16.11;59.19;99754.98;1797684;79;21189;-71
2021/04/17 05:27:11;;;;;;;2.42;2.22;;;;;;;16.11;59.21;99757.67;1812097;79;21154;-71
2021/04/17 05:29:38;;;;;;;2.62;2.42;;;;;;;16.11;59.19;99757.67;1792095;79;21162;-73
2021/04/17 05:32:08;;;;;;;2.37;2.17;;;;;;;16.10;59.21;99751.98;1790509;79;21189;-73
2021/04/17 05:34:36;;;;;;;2.37;2.17;;;;;;;16.10;59.19;99754.14;1784885;79;21196;-74
2021/04/17 05:37:03;;;;;;;3.00;2.58;;;;;;;16.10;59.20;99755.48;1789938;79;21147;-74
2021/04/17 05:39:30;;;;;;;2.80;2.50;;;;;;;16.10;59.20;99766.20;1796918;79;21192;-73
2021/04/17 05:41:58;;;;;;;2.60;2.40;;;;;;;16.10;59.20;99762.17;1792873;79;21132;-74
2021/04/17 05:44:25;;;;;;;3.25;2.50;;;;;;;16.11;59.19;99764.37;1798517;79;21162;-75
2021/04/17 05:46:54;;;;;;;2.40;2.10;;;;;;;16.11;59.20;99768.39;1781892;79;21406;-74
2021/04/17 05:49:21;;;;;;;2.50;2.30;;;;;;;16.10;59.17;99769.40;1780053;79;21139;-74
2021/04/17 05:51:50;;;;;;;3.45;2.40;;;;;;;16.10;59.15;99773.42;1795739;78;21123;-75
2021/04/17 05:54:17;;;;;;;2.47;2.22;;;;;;;16.11;59.16;99771.06;1786366;79;21163;-72
2021/04/17 05:56:45;;;;;;;2.30;2.10;;;;;;;16.10;59.15;99775.58;1800873;78;21226;-72
2021/04/17 05:59:12;;;;;;;2.60;2.22;;;;;;;16.10;59.14;99778.25;1791933;79;21409;-74
2021/04/17 06:01:41;;;;;;;2.30;2.10;;;;;;;16.11;59.14;99788.48;1772848;78;21146;-74
2021/04/17 06:04:09;;;;;;;2.30;2.10;;;;;;;16.12;59.12;99786.10;1768816;79;21152;-71
2021/04/17 06:06:36;;;;;;;2.33;2.12;;;;;;;16.11;59.07;99787.14;1805467;78;22365;-72
2021/04/17 06:09:04;;;;;;;2.87;2.58;;;;;;;16.12;59.05;99783.42;1808425;79;21114;-70
2021/04/17 06:11:33;;;;;;;2.40;2.20;;;;;;;16.12;59.00;99788.26;1805744;78;21248;-70
2021/04/17 06:14:02;;;;;;;2.20;2.00;;;;;;;16.13;59.00;99783.75;1782066;78;21572;-71
2021/04/17 06:16:30;;;;;;;2.30;2.10;;;;;;;16.15;59.02;99791.55;1815540;77;21571;-71
2021/04/17 06:18:59;;;;;;;2.55;2.33;;;;;;;16.13;58.98;99791.78;1765584;80;21155;-70
2021/04/17 06:21:28;;;;;;;2.58;2.30;;;;;;;16.14;58.97;99789.92;1801309;78;21569;-70
2021/04/17 06:23:55;;;;;;;2.50;2.30;;;;;;;16.15;58.96;99789.73;1805226;78;23581;-70
2021/04/17 06:26:22;;;;;;;2.70;2.50;;;;;;;16.15;58.98;99794.23;1807816;78;21177;-68
2021/04/17 06:29:54;;;;;;;3.75;2.20;;;;;;;16.21;58.96;99798.29;1797979;77;28168;-68
2021/04/17 06:32:21;;;;;;;2.45;2.25;;;;;;;16.15;58.95;99792.90;1758036;80;21182;-69
2021/04/17 06:34:50;;;;;;;2.37;2.17;;;;;;;16.16;58.91;99801.27;1771597;78;21201;-68
2021/04/17 06:37:17;;;;;;;2.42;2.22;;;;;;;16.17;58.87;99807.77;1760601;78;21191;-69
2021/04/17 06:39:45;;;;;;;2.60;2.40;;;;;;;16.18;58.86;99810.74;1769165;78;21624;-70
2021/04/17 06:42:13;;;;;;;2.40;2.20;;;;;;;16.18;58.85;99817.97;1769126;80;21202;-68
2021/04/17 06:44:42;;;;;;;2.30;2.10;;;;;;;16.16;58.85;99807.44;1755116;80;21037;-70
2021/04/17 06:47:11;;;;;;;2.40;2.20;;;;;;;16.18;58.85;99812.08;1773282;78;21384;-69
2021/04/17 06:49:39;;;;;;;2.52;2.33;;;;;;;16.18;58.82;99816.10;1730588;78;21209;-70
2021/04/17 06:52:08;;;;;;;2.08;1.95;;;;;;;16.18;58.81;99813.42;1756765;78;21214;-71
2021/04/17 06:54:35;;;;;;;2.52;2.33;;;;;;;16.18;58.82;99817.44;1773851;78;21182;-69
2021/04/17 06:57:03;;;;;;;2.25;2.05;;;;;;;16.19;58.83;99819.63;1774970;78;21163;-68
2021/04/17 06:59:31;;;;;;;2.55;2.30;;;;;;;16.18;58.79;99820.13;1767489;78;21349;-70
2021/04/17 07:02:00;;;;;;;2.55;2.35;;;;;;;16.20;58.78;99820.74;1756993;78;21598;-69
2021/04/17 07:04:27;;;;;;;2.30;2.10;;;;;;;16.20;58.75;99823.42;1768537;78;21156;-69
2021/04/17 07:06:55;;;;;;;3.08;2.17;;;;;;;16.21;58.76;99829.63;1715515;81;21156;-68
2021/04/17 07:09:23;;;;;;;2.15;1.95;;;;;;;16.21;58.72;99830.97;1686131;82;21159;-70
2021/04/17 07:11:50;;;;;;;2.60;2.40;;;;;;;16.22;58.70;99832.09;1727492;81;21395;-68
2021/04/17 07:14:18;;;;;;;2.42;2.22;;;;;;;16.23;58.68;99830.25;1699676;81;21185;-69
2021/04/17 07:17:04;;;;;;;2.27;2.08;;;;;;;16.22;58.68;99833.42;1701760;81;21152;-66
2021/04/17 07:20:03;;;;;;;2.33;2.12;;;;;;;16.26;58.63;99838.72;1704422;83;21144;-70
2021/04/17 07:22:36;;;;;;;2.12;1.92;;;;;;;16.25;58.63;99840.26;1699555;81;21190;-70
2021/04/17 07:25:11;;;;;;;2.27;2.08;;;;;;;16.24;58.62;99846.63;1697965;82;21231;-70
2021/04/17 07:27:51;;;;;;;2.30;2.10;;;;;;;16.25;58.67;99845.62;1717362;81;21177;-70
2021/04/17 07:30:23;;;;;;;2.30;2.10;;;;;;;16.25;58.64;99846.44;1711117;82;21610;-70
2021/04/17 07:33:16;;;;;;;2.50;2.17;;;;;;;16.25;58.63;99843.76;1706548;81;21188;-70
2021/04/17 07:35:51;;;;;;;2.02;1.82;;;;;;;16.27;58.62;99847.06;1718792;81;21146;-70
2021/04/17 07:38:22;;;;;;;2.08;1.90;;;;;;;16.26;58.63;99847.25;1716100;83;22285;-70
2021/04/17 07:41:14;;;;;;;2.55;2.35;;;;;;;16.27;58.66;99857.78;1699609;81;21223;-70
2021/04/17 07:43:52;;;;;;;2.50;2.30;;;;;;;16.29;58.63;99857.59;1700546;82;21192;-70
2021/04/17 07:46:26;;;;;;;2.22;2.00;;;;;;;16.27;58.62;99852.42;1697569;81;21192;-70
2021/04/17 07:49:18;;;;;;;2.60;2.35;;;;;;;16.28;58.64;99861.28;1690478;81;21144;-70
2021/04/17 07:52:11;;;;;;;2.87;2.67;;;;;;;16.28;58.64;99863.47;1697724;81;21381;-70
2021/04/17 07:55:06;;;;;;;2.62;2.42;;;;;;;16.28;58.65;99863.95;1705691;82;21464;-73
2021/04/17 07:57:38;;;;;;;2.20;2.00;;;;;;;16.28;58.99;99863.95;1712280;81;21176;-75
2021/04/17 08:00:09;;;;;;;2.35;2.15;;;;;;;16.27;59.03;99863.66;1708097;81;21572;-72
2021/04/17 08:02:38;;;;;;;2.30;2.10;;;;;;;16.27;59.03;99865.82;1704701;83;21146;-69
2021/04/17 08:05:08;;;;;;;2.45;2.10;;;;;;;16.27;59.01;99867.16;1701457;82;21379;-71
2021/04/17 08:07:36;;;;;;;3.55;2.20;;;;;;;16.28;58.96;99866.15;1705142;81;21158;-71
2021/04/17 08:10:10;;;;;;;2.27;2.08;;;;;;;16.30;58.92;99871.28;1705539;81;21459;-74
2021/04/17 08:12:40;;;;;;;2.52;2.33;;;;;;;16.31;58.86;99871.09;1693499;83;21190;-72
2021/04/17 08:15:12;;;;;;;3.08;2.50;;;;;;;16.31;58.80;99874.29;1703954;81;21177;-71
2021/04/17 08:17:40;;;;;;;2.33;2.12;;;;;;;16.31;58.76;99868.93;1712787;83;21393;-70
2021/04/17 08:20:11;;;;;;;2.40;2.20;;;;;;;16.31;58.73;99871.61;1717240;83;21611;-72
2021/04/17 08:22:39;;;;;;;2.35;2.15;;;;;;;16.31;58.69;99871.09;1711418;81;21212;-72
2021/04/17 08:25:08;;;;;;;1.98;1.87;;;;;;;16.32;58.65;99874.59;1719405;82;21196;-75
2021/04/17 08:27:35;;;;;;;2.10;1.90;;;;;;;16.33;58.60;99876.25;1701531;83;21226;-75
2021/04/17 08:30:09;;;;;;;2.37;2.17;;;;;;;16.33;58.57;99879.45;1677976;83;21451;-73
2021/04/17 08:32:43;;;;;;;2.70;2.45;;;;;;;16.34;58.52;99873.05;1675838;85;21596;-71
2021/04/17 08:35:22;;;;;;;2.90;2.20;;;;;;;16.33;58.49;99878.93;1665465;85;21244;-74
2021/04/17 08:37:56;;;;;;;2.80;2.60;;;;;;;16.34;58.45;99879.75;1667098;85;21224;-72
2021/04/17 08:40:44;;;;;;;2.55;2.35;;;;;;;16.33;58.44;99876.77;1661501;85;21207;-73
2021/04/17 08:43:22;;;;;;;2.20;2.00;;;;;;;16.32;58.42;99878.61;1668344;85;21605;-74
2021/04/17 08:46:07;;;;;;;2.58;2.08;;;;;;;16.32;58.40;99885.31;1660975;85;21176;-74
2021/04/17 08:48:53;;;;;;;2.50;2.30;;;;;;;16.31;58.37;99879.13;1672924;85;21669;-77
2021/04/17 08:51:26;;;;;;;2.55;2.35;;;;;;;16.30;58.33;99886.87;1660636;85;21187;-72
2021/04/17 08:54:11;;;;;;;2.45;2.25;;;;;;;16.30;58.31;99884.69;1667950;85;21168;-73
2021/04/17 08:56:56;;;;;;;2.37;2.12;;;;;;;16.30;58.32;99884.19;1665338;85;21349;-72
2021/04/17 08:59:37;;;;;;;2.80;2.50;;;;;;;16.29;58.32;99891.91;1671740;85;21160;-76
2021/04/17 09:02:13;;;;;;;2.83;2.30;;;;;;;16.28;58.33;99888.94;1659004;83;21199;-75
2021/04/17 09:05:12;;;;;;;3.58;2.60;;;;;;;16.28;58.32;99885.41;1658739;85;21402;-75
2021/04/17 09:07:45;;;;;;;2.55;2.35;;;;;;;16.28;58.27;99884.06;1664452;85;21636;-76
2021/04/17 09:10:34;;;;;;;2.60;2.40;;;;;;;16.27;58.29;99889.13;1659414;85;21386;-76
2021/04/17 09:13:18;;;;;;;2.33;2.12;;;;;;;16.26;58.27;99889.66;1656153;85;21171;-76
2021/04/17 09:16:00;;;;;;;2.92;2.62;;;;;;;16.24;58.30;99887.66;1659714;85;22290;-74
2021/04/17 09:18:38;;;;;;;3.00;2.70;;;;;;;16.24;58.28;99890.86;1662275;85;21171;-73
2021/04/17 09:21:16;;;;;;;4.83;3.17;;;;;;;16.24;58.28;99889.00;1672302;85;21195;-74
2021/04/17 09:23:52;;;;;;;3.50;3.20;;;;;;;16.23;58.27;99885.20;1659891;85;21484;-73
2021/04/17 09:26:34;;;;;;;3.72;3.17;;;;;;;16.23;58.24;99887.36;1657880;85;21203;-73
2021/04/17 09:29:08;;;;;;;3.55;3.25;;;;;;;16.25;58.23;99895.20;1679798;82;21579;-74
2021/04/17 09:31:37;;;;;;;4.12;3.75;;;;;;;16.24;58.21;99894.36;1693204;82;21166;-71
2021/04/17 09:36:50;;;;;;;10.00;5.92;;;;;;;16.33;62.19;99895.02;1822279;77;28763;-72
2021/04/17 09:39:31;;;;;;;8.50;6.47;;;;;;;16.44;61.75;99887.73;1793997;79;21134;-72
2021/04/17 09:42:03;;;;;;;10.35;6.55;;;;;;;16.60;62.58;99892.41;1780322;79;21608;-73
2021/04/17 09:44:47;;;;;;;11.78;6.67;;;;;;;16.61;62.73;99893.55;1791471;79;21246;-74
2021/04/17 09:47:18;;;;;;;8.53;6.55;;;;;;;16.62;62.52;99899.20;1777163;79;21616;-75
2021/04/17 09:49:48;;;;;;;8.40;6.37;;;;;;;16.62;62.24;99904.56;1788403;80;21149;-74
2021/04/17 09:52:18;;;;;;;8.20;6.28;;;;;;;16.63;61.98;99909.41;1810800;78;21139;-74
2021/04/17 09:54:48;;;;;;;9.10;7.10;;;;;;;16.63;61.68;99906.73;1791456;78;21260;-74
2021/04/17 09:57:15;;;;;;;10.35;6.45;;;;;;;16.62;61.43;99904.56;1789144;79;21196;-73
2021/04/17 09:59:52;;;;;;;8.53;7.17;;;;;;;16.63;61.19;99907.58;1774912;80;21177;-73
2021/04/17 10:02:19;;;;;;;9.45;6.95;;;;;;;16.62;60.99;99907.25;1789638;79;21165;-74
2021/04/17 10:04:55;;;;;;;8.25;6.75;;;;;;;16.60;60.79;99901.27;1793365;79;21118;-75
2021/04/17 10:07:22;;;;;;;9.93;7.22;;;;;;;16.60;60.60;99913.34;1799559;78;21356;-74
2021/04/17 10:10:06;;;;;;;9.60;6.92;;;;;;;16.59;60.47;99915.72;1770232;79;21165;-73
2021/04/17 10:12:54;;;;;;;8.70;7.28;;;;;;;16.58;60.34;99919.42;1790752;79;21096;-74
2021/04/17 10:15:27;;;;;;;8.35;6.78;;;;;;;16.56;60.22;99918.80;1795338;78;21633;-74
2021/04/17 10:17:57;;;;;;;10.05;7.47;;;;;;;16.54;60.11;99924.87;1800420;78;21619;-74
2021/04/17 10:20:25;;;;;;;10.43;7.83;;;;;;;16.53;60.00;99929.92;1788089;78;21396;-74
2021/04/17 10:22:59;;;;;;;9.33;7.47;;;;;;;16.51;59.93;99926.13;1797819;78;21169;-72
2021/04/17 10:25:42;;;;;;;8.30;7.22;;;;;;;16.50;59.83;99925.80;1794204;78;21209;-72
2021/04/17 10:28:24;;;;;;;8.63;7.05;;;;;;;16.49;59.75;99932.17;1796666;79;21170;-72
2021/04/17 10:30:54;;;;;;;7.97;7.10;;;;;;;16.47;59.69;99928.05;1801284;78;22066;-72
2021/04/17 10:33:25;;;;;;;8.05;6.45;;;;;;;16.46;59.64;99925.89;1801543;79;21474;-72
2021/04/17 10:35:54;;;;;;;8.30;7.28;;;;;;;16.46;59.60;99929.09;1803306;78;21182;-71
2021/04/17 10:38:25;;;;;;;8.25;7.12;;;;;;;16.45;59.53;99929.59;1794234;79;21170;-72
2021/04/17 10:40:55;;;;;;;11.83;8.55;;;;;;;16.46;59.85;99929.09;1805808;79;21609;-72
2021/04/17 10:43:22;;;;;;;12.75;9.18;;;;;;;16.47;60.80;99931.55;1798267;78;21134;-73
2021/04/17 10:45:56;;;;;;;9.60;7.05;;;;;;;16.50;61.49;99937.05;1785114;79;21990;-71
2021/04/17 10:48:25;;;;;;;12.33;8.33;;;;;;;16.57;61.51;99935.19;1798291;79;21179;-74
2021/04/17 10:51:13;;;;;;;9.35;7.75;;;;;;;16.69;61.14;99934.92;1794576;79;21178;-74
2021/04/17 10:53:46;;;;;;;10.48;7.50;;;;;;;16.69;60.98;99936.27;1813745;79;21153;-75
2021/04/17 10:56:19;;;;;;;10.63;7.40;;;;;;;16.67;60.82;99943.69;1798748;79;21150;-74
2021/04/17 10:58:59;;;;;;;11.60;7.85;;;;;;;16.67;60.68;99941.53;1794120;79;21364;-74
2021/04/17 11:01:29;;;;;;;12.10;8.58;;;;;;;16.66;60.53;99939.34;1792070;79;21599;-73
2021/04/17 11:06:37;;;;;;;12.20;8.43;;;;;;;16.67;60.29;99944.21;1858159;75;28695;-72
2021/04/17 11:09:11;;;;;;;11.63;8.38;;;;;;;16.63;60.16;99943.79;1832925;76;21124;-73
2021/04/17 11:11:59;;;;;;;9.33;7.60;;;;;;;16.62;60.09;99951.51;1834995;77;21361;-73
2021/04/17 11:14:28;;;;;;;10.60;7.62;;;;;;;16.61;59.97;99949.88;1834816;76;21136;-74
2021/04/17 11:16:56;;;;;;;9.48;7.05;;;;;;;16.60;59.90;99951.41;1832674;77;21184;-73
2021/04/17 11:19:33;;;;;;;9.30;6.70;;;;;;;16.57;59.83;99949.94;1832283;76;21128;-74
2021/04/17 11:22:14;;;;;;;8.45;7.42;;;;;;;16.58;59.75;99952.12;1857380;77;21116;-74
2021/04/17 11:27:39;;;;;;;9.70;7.10;;;;;;;16.58;59.67;99954.28;1804063;77;28191;-73
2021/04/17 11:30:08;;;;;;;9.18;7.40;;;;;;;16.51;59.60;99953.43;1801100;79;21160;-73
2021/04/17 11:32:35;;;;;;;10.55;7.35;;;;;;;16.51;59.60;99959.64;1818251;78;22342;-74
2021/04/17 11:35:07;;;;;;;9.20;7.08;;;;;;;16.49;59.53;99958.98;1819142;78;21166;-73
2021/04/17 11:37:35;;;;;;;9.43;7.28;;;;;;;16.48;59.48;99956.53;1818929;78;21156;-74
2021/04/17 11:40:05;;;;;;;8.73;6.70;;;;;;;16.49;59.44;99955.48;1819743;78;21565;-74
2021/04/17 11:42:33;;;;;;;8.15;6.83;;;;;;;16.47;59.44;99958.36;1818276;78;21136;-74
2021/04/17 11:45:00;;;;;;;8.65;7.00;;;;;;;16.47;59.39;99957.02;1818312;78;21354;-73
2021/04/17 11:47:28;;;;;;;9.38;6.87;;;;;;;16.47;59.38;99959.70;1818240;78;21193;-73
2021/04/17 11:49:55;;;;;;;8.58;6.83;;;;;;;16.47;59.31;99961.56;1818147;78;21189;-73
2021/04/17 11:52:23;;;;;;;9.18;6.75;;;;;;;16.47;59.28;99968.27;1818168;78;21117;-73
2021/04/17 11:54:52;;;;;;;8.63;6.75;;;;;;;16.48;59.22;99965.92;1797023;78;21181;-72
2021/04/17 11:57:19;;;;;;;8.70;6.78;;;;;;;16.47;59.20;99965.06;1819331;78;21364;-73
2021/04/17 11:59:47;;;;;;;8.08;6.42;;;;;;;16.46;59.16;99963.43;1820299;78;21565;-74
2021/04/17 12:02:14;;;;;;;8.78;6.78;;;;;;;16.46;59.15;99967.45;1818292;78;21160;-72
2021/04/17 12:04:42;;;;;;;8.90;6.95;;;;;;;16.46;59.11;99963.43;1818043;78;21164;-73